sensor_id;sensor_type;location;lat;lon;timestamp;P1;durP1;ratioP1;P2;durP2;ratioP2
64110;SDS011;50401;48.188;11.566;2024-02-16T00:01:57;12.15;;;7.63;;
64110;SDS011;50401;48.188;11.566;2024-02-16T00:04:23;16.45;;;8.05;;
64110;SDS011;50401;48.188;11.566;2024-02-16T00:06:48;11.40;;;6.80;;
64110;SDS011;50401;48.188;11.566;2024-02-16T00:09:14;20.25;;;7.82;;
64110;SDS011;50401;48.188;11.566;2024-02-16T00:11:39;15.45;;;7.72;;
64110;SDS011;50401;48.188;11.566;2024-02-16T00:14:05;13.23;;;7.25;;
64110;SDS011;50401;48.188;11.566;2024-02-16T00:16:30;14.10;;;7.60;;
64110;SDS011;50401;48.188;11.566;2024-02-16T00:18:55;14.98;;;7.80;;
64110;SDS011;50401;48.188;11.566;2024-02-16T00:21:21;15.45;;;8.27;;
64110;SDS011;50401;48.188;11.566;2024-02-16T00:23:46;22.27;;;8.75;;
64110;SDS011;50401;48.188;11.566;2024-02-16T00:26:11;20.95;;;8.43;;
64110;SDS011;50401;48.188;11.566;2024-02-16T00:28:37;15.45;;;8.02;;
64110;SDS011;50401;48.188;11.566;2024-02-16T00:31:02;15.07;;;8.23;;
64110;SDS011;50401;48.188;11.566;2024-02-16T00:33:30;20.67;;;8.60;;
64110;SDS011;50401;48.188;11.566;2024-02-16T00:35:55;16.17;;;8.10;;
64110;SDS011;50401;48.188;11.566;2024-02-16T00:38:21;17.40;;;8.52;;
64110;SDS011;50401;48.188;11.566;2024-02-16T00:40:47;17.85;;;9.25;;
64110;SDS011;50401;48.188;11.566;2024-02-16T00:43:13;14.43;;;7.65;;
64110;SDS011;50401;48.188;11.566;2024-02-16T00:45:39;16.20;;;7.85;;
64110;SDS011;50401;48.188;11.566;2024-02-16T00:48:06;20.20;;;8.55;;
64110;SDS011;50401;48.188;11.566;2024-02-16T00:50:32;14.90;;;8.07;;
64110;SDS011;50401;48.188;11.566;2024-02-16T00:52:57;16.35;;;7.75;;
64110;SDS011;50401;48.188;11.566;2024-02-16T00:55:25;16.70;;;7.72;;
64110;SDS011;50401;48.188;11.566;2024-02-16T00:57:50;13.45;;;7.90;;
64110;SDS011;50401;48.188;11.566;2024-02-16T01:00:15;17.90;;;7.68;;
64110;SDS011;50401;48.188;11.566;2024-02-16T01:02:41;15.60;;;8.40;;
64110;SDS011;50401;48.188;11.566;2024-02-16T01:05:06;13.35;;;6.88;;
64110;SDS011;50401;48.188;11.566;2024-02-16T01:07:35;15.18;;;7.07;;
64110;SDS011;50401;48.188;11.566;2024-02-16T01:10:00;19.10;;;7.53;;
64110;SDS011;50401;48.188;11.566;2024-02-16T01:12:28;15.10;;;7.10;;
64110;SDS011;50401;48.188;11.566;2024-02-16T01:14:55;15.98;;;8.15;;
64110;SDS011;50401;48.188;11.566;2024-02-16T01:17:21;18.35;;;8.38;;
64110;SDS011;50401;48.188;11.566;2024-02-16T01:19:46;13.77;;;6.90;;
64110;SDS011;50401;48.188;11.566;2024-02-16T01:22:12;15.20;;;7.50;;
64110;SDS011;50401;48.188;11.566;2024-02-16T01:24:37;13.60;;;7.25;;
64110;SDS011;50401;48.188;11.566;2024-02-16T01:27:03;11.98;;;7.53;;
64110;SDS011;50401;48.188;11.566;2024-02-16T01:29:28;17.27;;;8.25;;
64110;SDS011;50401;48.188;11.566;2024-02-16T01:31:54;15.10;;;7.90;;
64110;SDS011;50401;48.188;11.566;2024-02-16T01:34:19;16.58;;;7.65;;
64110;SDS011;50401;48.188;11.566;2024-02-16T01:36:44;15.95;;;7.38;;
64110;SDS011;50401;48.188;11.566;2024-02-16T01:39:10;13.90;;;8.02;;
64110;SDS011;50401;48.188;11.566;2024-02-16T01:41:38;14.65;;;7.40;;
64110;SDS011;50401;48.188;11.566;2024-02-16T01:44:04;15.45;;;7.38;;
64110;SDS011;50401;48.188;11.566;2024-02-16T01:46:30;16.40;;;7.80;;
64110;SDS011;50401;48.188;11.566;2024-02-16T01:48:56;15.38;;;7.15;;
64110;SDS011;50401;48.188;11.566;2024-02-16T01:51:22;14.65;;;7.90;;
64110;SDS011;50401;48.188;11.566;2024-02-16T01:53:49;18.08;;;8.25;;
64110;SDS011;50401;48.188;11.566;2024-02-16T01:56:15;14.73;;;7.57;;
64110;SDS011;50401;48.188;11.566;2024-02-16T01:58:40;21.63;;;8.18;;
64110;SDS011;50401;48.188;11.566;2024-02-16T02:01:06;17.23;;;7.85;;
64110;SDS011;50401;48.188;11.566;2024-02-16T02:03:32;17.23;;;7.93;;
64110;SDS011;50401;48.188;11.566;2024-02-16T02:05:58;16.60;;;7.90;;
64110;SDS011;50401;48.188;11.566;2024-02-16T02:08:24;14.60;;;8.00;;
64110;SDS011;50401;48.188;11.566;2024-02-16T02:10:51;13.35;;;7.88;;
64110;SDS011;50401;48.188;11.566;2024-02-16T02:13:16;16.83;;;8.50;;
64110;SDS011;50401;48.188;11.566;2024-02-16T02:15:42;16.15;;;8.60;;
64110;SDS011;50401;48.188;11.566;2024-02-16T02:18:07;14.40;;;8.15;;
64110;SDS011;50401;48.188;11.566;2024-02-16T02:20:32;16.33;;;7.82;;
64110;SDS011;50401;48.188;11.566;2024-02-16T02:22:58;14.10;;;7.35;;
64110;SDS011;50401;48.188;11.566;2024-02-16T02:25:24;19.33;;;8.23;;
64110;SDS011;50401;48.188;11.566;2024-02-16T02:27:51;16.50;;;8.13;;
64110;SDS011;50401;48.188;11.566;2024-02-16T02:30:17;14.95;;;8.07;;
64110;SDS011;50401;48.188;11.566;2024-02-16T02:32:42;15.70;;;7.85;;
64110;SDS011;50401;48.188;11.566;2024-02-16T02:35:08;19.10;;;8.55;;
64110;SDS011;50401;48.188;11.566;2024-02-16T02:37:33;16.73;;;8.02;;
64110;SDS011;50401;48.188;11.566;2024-02-16T02:39:59;13.85;;;7.30;;
64110;SDS011;50401;48.188;11.566;2024-02-16T02:42:24;16.13;;;8.07;;
64110;SDS011;50401;48.188;11.566;2024-02-16T02:44:49;22.15;;;8.45;;
64110;SDS011;50401;48.188;11.566;2024-02-16T02:47:16;16.23;;;7.78;;
64110;SDS011;50401;48.188;11.566;2024-02-16T02:49:42;17.50;;;8.15;;
64110;SDS011;50401;48.188;11.566;2024-02-16T02:52:08;16.00;;;7.25;;
64110;SDS011;50401;48.188;11.566;2024-02-16T02:54:34;23.00;;;8.65;;
64110;SDS011;50401;48.188;11.566;2024-02-16T02:56:59;22.35;;;8.70;;
64110;SDS011;50401;48.188;11.566;2024-02-16T02:59:24;18.05;;;7.85;;
64110;SDS011;50401;48.188;11.566;2024-02-16T03:01:50;16.05;;;7.97;;
64110;SDS011;50401;48.188;11.566;2024-02-16T03:04:15;19.00;;;7.70;;
64110;SDS011;50401;48.188;11.566;2024-02-16T03:06:40;15.20;;;7.85;;
64110;SDS011;50401;48.188;11.566;2024-02-16T03:09:06;20.50;;;8.10;;
64110;SDS011;50401;48.188;11.566;2024-02-16T03:11:31;17.67;;;7.85;;
64110;SDS011;50401;48.188;11.566;2024-02-16T03:13:57;15.93;;;7.18;;
64110;SDS011;50401;48.188;11.566;2024-02-16T03:16:22;17.55;;;7.82;;
64110;SDS011;50401;48.188;11.566;2024-02-16T03:18:48;19.63;;;8.20;;
64110;SDS011;50401;48.188;11.566;2024-02-16T03:21:13;15.20;;;9.30;;
64110;SDS011;50401;48.188;11.566;2024-02-16T03:23:41;18.80;;;7.88;;
64110;SDS011;50401;48.188;11.566;2024-02-16T03:26:13;19.83;;;8.50;;
64110;SDS011;50401;48.188;11.566;2024-02-16T03:28:39;17.02;;;8.35;;
64110;SDS011;50401;48.188;11.566;2024-02-16T03:31:05;18.02;;;8.57;;
64110;SDS011;50401;48.188;11.566;2024-02-16T03:33:30;17.00;;;9.43;;
64110;SDS011;50401;48.188;11.566;2024-02-16T03:35:55;20.98;;;9.50;;
64110;SDS011;50401;48.188;11.566;2024-02-16T03:38:21;21.17;;;8.70;;
64110;SDS011;50401;48.188;11.566;2024-02-16T03:40:47;12.98;;;8.00;;
64110;SDS011;50401;48.188;11.566;2024-02-16T03:43:12;20.20;;;8.70;;
64110;SDS011;50401;48.188;11.566;2024-02-16T03:45:38;21.10;;;9.18;;
64110;SDS011;50401;48.188;11.566;2024-02-16T03:48:03;15.43;;;9.05;;
64110;SDS011;50401;48.188;11.566;2024-02-16T03:50:29;17.65;;;8.40;;
64110;SDS011;50401;48.188;11.566;2024-02-16T03:52:54;18.05;;;8.68;;
64110;SDS011;50401;48.188;11.566;2024-02-16T03:55:20;21.08;;;8.50;;
64110;SDS011;50401;48.188;11.566;2024-02-16T03:57:45;18.52;;;8.45;;
64110;SDS011;50401;48.188;11.566;2024-02-16T04:00:11;21.83;;;8.65;;
64110;SDS011;50401;48.188;11.566;2024-02-16T04:02:37;16.45;;;8.80;;
64110;SDS011;50401;48.188;11.566;2024-02-16T04:05:04;25.45;;;9.32;;
64110;SDS011;50401;48.188;11.566;2024-02-16T04:07:29;26.05;;;9.15;;
64110;SDS011;50401;48.188;11.566;2024-02-16T04:09:55;31.27;;;11.02;;
64110;SDS011;50401;48.188;11.566;2024-02-16T04:12:20;28.17;;;9.93;;
64110;SDS011;50401;48.188;11.566;2024-02-16T04:14:45;16.83;;;9.15;;
64110;SDS011;50401;48.188;11.566;2024-02-16T04:17:11;15.05;;;8.50;;
64110;SDS011;50401;48.188;11.566;2024-02-16T04:19:36;31.73;;;8.98;;
64110;SDS011;50401;48.188;11.566;2024-02-16T04:22:02;18.83;;;9.23;;
64110;SDS011;50401;48.188;11.566;2024-02-16T04:24:28;26.42;;;8.80;;
64110;SDS011;50401;48.188;11.566;2024-02-16T04:26:54;15.60;;;7.57;;
64110;SDS011;50401;48.188;11.566;2024-02-16T04:29:19;20.80;;;9.38;;
64110;SDS011;50401;48.188;11.566;2024-02-16T04:31:44;17.65;;;8.90;;
64110;SDS011;50401;48.188;11.566;2024-02-16T04:34:11;23.85;;;9.55;;
64110;SDS011;50401;48.188;11.566;2024-02-16T04:36:37;33.10;;;9.15;;
64110;SDS011;50401;48.188;11.566;2024-02-16T04:39:02;16.48;;;9.07;;
64110;SDS011;50401;48.188;11.566;2024-02-16T04:41:28;24.88;;;10.07;;
64110;SDS011;50401;48.188;11.566;2024-02-16T04:43:54;22.38;;;9.05;;
64110;SDS011;50401;48.188;11.566;2024-02-16T04:46:19;19.58;;;9.35;;
64110;SDS011;50401;48.188;11.566;2024-02-16T04:48:45;23.13;;;10.18;;
64110;SDS011;50401;48.188;11.566;2024-02-16T04:51:11;34.45;;;11.43;;
64110;SDS011;50401;48.188;11.566;2024-02-16T04:53:37;24.58;;;10.80;;
64110;SDS011;50401;48.188;11.566;2024-02-16T04:56:02;21.08;;;9.90;;
64110;SDS011;50401;48.188;11.566;2024-02-16T04:58:28;30.13;;;10.50;;
64110;SDS011;50401;48.188;11.566;2024-02-16T05:00:53;20.58;;;9.75;;
64110;SDS011;50401;48.188;11.566;2024-02-16T05:03:19;26.33;;;9.43;;
64110;SDS011;50401;48.188;11.566;2024-02-16T05:05:44;39.40;;;10.88;;
64110;SDS011;50401;48.188;11.566;2024-02-16T05:08:10;30.30;;;10.95;;
64110;SDS011;50401;48.188;11.566;2024-02-16T05:10:36;22.15;;;9.98;;
64110;SDS011;50401;48.188;11.566;2024-02-16T05:13:01;31.48;;;9.20;;
64110;SDS011;50401;48.188;11.566;2024-02-16T05:15:27;40.35;;;10.63;;
64110;SDS011;50401;48.188;11.566;2024-02-16T05:17:53;38.20;;;10.80;;
64110;SDS011;50401;48.188;11.566;2024-02-16T05:20:18;28.08;;;10.27;;
64110;SDS011;50401;48.188;11.566;2024-02-16T05:22:44;18.13;;;8.48;;
64110;SDS011;50401;48.188;11.566;2024-02-16T05:25:11;24.85;;;9.65;;
64110;SDS011;50401;48.188;11.566;2024-02-16T05:27:43;36.25;;;9.63;;
64110;SDS011;50401;48.188;11.566;2024-02-16T05:30:09;25.73;;;9.35;;
64110;SDS011;50401;48.188;11.566;2024-02-16T05:32:37;24.83;;;10.05;;
64110;SDS011;50401;48.188;11.566;2024-02-16T05:35:03;21.92;;;9.10;;
64110;SDS011;50401;48.188;11.566;2024-02-16T05:37:36;33.50;;;9.43;;
64110;SDS011;50401;48.188;11.566;2024-02-16T05:40:16;32.35;;;10.45;;
64110;SDS011;50401;48.188;11.566;2024-02-16T05:42:53;32.92;;;10.93;;
64110;SDS011;50401;48.188;11.566;2024-02-16T05:45:19;36.22;;;10.65;;
64110;SDS011;50401;48.188;11.566;2024-02-16T05:47:48;39.65;;;10.07;;
64110;SDS011;50401;48.188;11.566;2024-02-16T05:50:14;29.00;;;9.15;;
64110;SDS011;50401;48.188;11.566;2024-02-16T05:52:40;24.88;;;9.90;;
64110;SDS011;50401;48.188;11.566;2024-02-16T05:55:07;27.70;;;9.55;;
64110;SDS011;50401;48.188;11.566;2024-02-16T05:57:33;25.95;;;10.00;;
64110;SDS011;50401;48.188;11.566;2024-02-16T05:59:59;30.35;;;9.90;;
64110;SDS011;50401;48.188;11.566;2024-02-16T06:02:25;30.58;;;9.02;;
64110;SDS011;50401;48.188;11.566;2024-02-16T06:04:51;31.73;;;9.98;;
64110;SDS011;50401;48.188;11.566;2024-02-16T06:07:17;37.55;;;10.93;;
64110;SDS011;50401;48.188;11.566;2024-02-16T06:09:42;35.88;;;10.57;;
64110;SDS011;50401;48.188;11.566;2024-02-16T06:12:07;46.60;;;10.57;;
64110;SDS011;50401;48.188;11.566;2024-02-16T06:14:34;42.22;;;11.40;;
64110;SDS011;50401;48.188;11.566;2024-02-16T06:17:01;51.72;;;11.68;;
64110;SDS011;50401;48.188;11.566;2024-02-16T06:19:27;49.53;;;11.85;;
64110;SDS011;50401;48.188;11.566;2024-02-16T06:21:53;56.88;;;11.65;;
64110;SDS011;50401;48.188;11.566;2024-02-16T06:26:50;60.55;;;11.45;;
64110;SDS011;50401;48.188;11.566;2024-02-16T06:29:16;63.65;;;12.68;;
64110;SDS011;50401;48.188;11.566;2024-02-16T06:31:44;51.22;;;12.50;;
64110;SDS011;50401;48.188;11.566;2024-02-16T06:34:10;61.88;;;12.68;;
64110;SDS011;50401;48.188;11.566;2024-02-16T06:36:35;48.13;;;11.93;;
64110;SDS011;50401;48.188;11.566;2024-02-16T06:39:00;64.18;;;12.93;;
64110;SDS011;50401;48.188;11.566;2024-02-16T06:41:26;52.60;;;12.60;;
64110;SDS011;50401;48.188;11.566;2024-02-16T06:43:51;35.75;;;12.27;;
64110;SDS011;50401;48.188;11.566;2024-02-16T06:46:17;47.97;;;12.30;;
64110;SDS011;50401;48.188;11.566;2024-02-16T06:48:42;49.00;;;12.80;;
64110;SDS011;50401;48.188;11.566;2024-02-16T06:51:07;41.65;;;10.48;;
64110;SDS011;50401;48.188;11.566;2024-02-16T06:53:33;50.45;;;11.02;;
64110;SDS011;50401;48.188;11.566;2024-02-16T06:56:00;60.90;;;12.00;;
64110;SDS011;50401;48.188;11.566;2024-02-16T06:58:26;53.92;;;10.35;;
64110;SDS011;50401;48.188;11.566;2024-02-16T07:00:51;47.97;;;10.15;;
64110;SDS011;50401;48.188;11.566;2024-02-16T07:03:16;71.03;;;12.18;;
64110;SDS011;50401;48.188;11.566;2024-02-16T07:05:43;34.90;;;9.63;;
64110;SDS011;50401;48.188;11.566;2024-02-16T07:08:08;48.10;;;10.65;;
64110;SDS011;50401;48.188;11.566;2024-02-16T07:10:34;50.72;;;9.63;;
64110;SDS011;50401;48.188;11.566;2024-02-16T07:13:00;46.00;;;10.07;;
64110;SDS011;50401;48.188;11.566;2024-02-16T07:15:25;42.65;;;8.90;;
64110;SDS011;50401;48.188;11.566;2024-02-16T07:17:52;38.72;;;7.88;;
64110;SDS011;50401;48.188;11.566;2024-02-16T07:20:17;41.13;;;8.35;;
64110;SDS011;50401;48.188;11.566;2024-02-16T07:22:43;48.00;;;8.43;;
64110;SDS011;50401;48.188;11.566;2024-02-16T07:25:11;38.45;;;8.48;;
64110;SDS011;50401;48.188;11.566;2024-02-16T07:27:37;60.60;;;11.32;;
64110;SDS011;50401;48.188;11.566;2024-02-16T07:30:03;45.90;;;9.20;;
64110;SDS011;50401;48.188;11.566;2024-02-16T07:32:29;54.38;;;10.23;;
64110;SDS011;50401;48.188;11.566;2024-02-16T07:34:54;50.08;;;9.43;;
64110;SDS011;50401;48.188;11.566;2024-02-16T07:37:20;47.78;;;10.18;;
64110;SDS011;50401;48.188;11.566;2024-02-16T07:39:45;49.92;;;10.65;;
64110;SDS011;50401;48.188;11.566;2024-02-16T07:42:10;50.97;;;10.55;;
64110;SDS011;50401;48.188;11.566;2024-02-16T07:44:37;34.28;;;7.55;;
64110;SDS011;50401;48.188;11.566;2024-02-16T07:47:03;49.05;;;8.32;;
64110;SDS011;50401;48.188;11.566;2024-02-16T07:49:29;52.40;;;7.88;;
64110;SDS011;50401;48.188;11.566;2024-02-16T07:51:54;51.83;;;9.82;;
64110;SDS011;50401;48.188;11.566;2024-02-16T07:54:20;80.60;;;20.08;;
64110;SDS011;50401;48.188;11.566;2024-02-16T07:56:45;84.53;;;18.75;;
64110;SDS011;50401;48.188;11.566;2024-02-16T07:59:11;74.07;;;16.70;;
64110;SDS011;50401;48.188;11.566;2024-02-16T08:01:36;77.60;;;12.70;;
64110;SDS011;50401;48.188;11.566;2024-02-16T08:04:02;103.45;;;15.65;;
64110;SDS011;50401;48.188;11.566;2024-02-16T08:06:27;104.32;;;14.02;;
64110;SDS011;50401;48.188;11.566;2024-02-16T08:08:53;79.43;;;17.02;;
64110;SDS011;50401;48.188;11.566;2024-02-16T08:11:19;87.63;;;18.63;;
64110;SDS011;50401;48.188;11.566;2024-02-16T08:13:45;73.35;;;14.55;;
64110;SDS011;50401;48.188;11.566;2024-02-16T08:16:11;62.42;;;14.77;;
64110;SDS011;50401;48.188;11.566;2024-02-16T08:18:36;68.60;;;14.55;;
64110;SDS011;50401;48.188;11.566;2024-02-16T08:21:02;73.38;;;14.68;;
64110;SDS011;50401;48.188;11.566;2024-02-16T08:23:28;87.40;;;15.15;;
64110;SDS011;50401;48.188;11.566;2024-02-16T08:25:53;76.65;;;12.77;;
64110;SDS011;50401;48.188;11.566;2024-02-16T08:28:18;79.80;;;14.07;;
64110;SDS011;50401;48.188;11.566;2024-02-16T08:30:44;66.47;;;12.25;;
64110;SDS011;50401;48.188;11.566;2024-02-16T08:33:10;45.83;;;10.88;;
64110;SDS011;50401;48.188;11.566;2024-02-16T08:35:37;66.75;;;9.05;;
64110;SDS011;50401;48.188;11.566;2024-02-16T08:38:03;50.03;;;10.63;;
64110;SDS011;50401;48.188;11.566;2024-02-16T08:40:28;41.55;;;8.52;;
64110;SDS011;50401;48.188;11.566;2024-02-16T08:42:54;76.68;;;8.77;;
64110;SDS011;50401;48.188;11.566;2024-02-16T08:48:41;47.92;;;8.05;;
64110;SDS011;50401;48.188;11.566;2024-02-16T08:51:09;54.30;;;8.82;;
64110;SDS011;50401;48.188;11.566;2024-02-16T08:53:34;70.80;;;10.13;;
64110;SDS011;50401;48.188;11.566;2024-02-16T08:56:00;79.80;;;13.40;;
64110;SDS011;50401;48.188;11.566;2024-02-16T08:58:25;55.03;;;10.40;;
64110;SDS011;50401;48.188;11.566;2024-02-16T09:00:50;60.65;;;11.10;;
64110;SDS011;50401;48.188;11.566;2024-02-16T09:03:16;45.75;;;8.77;;
64110;SDS011;50401;48.188;11.566;2024-02-16T09:05:41;43.58;;;8.00;;
64110;SDS011;50401;48.188;11.566;2024-02-16T09:08:09;57.33;;;9.70;;
64110;SDS011;50401;48.188;11.566;2024-02-16T09:10:34;32.88;;;7.95;;
64110;SDS011;50401;48.188;11.566;2024-02-16T09:13:01;55.53;;;8.05;;
64110;SDS011;50401;48.188;11.566;2024-02-16T09:15:27;42.85;;;7.10;;
64110;SDS011;50401;48.188;11.566;2024-02-16T09:17:52;42.95;;;7.93;;
64110;SDS011;50401;48.188;11.566;2024-02-16T09:20:18;45.90;;;7.55;;
64110;SDS011;50401;48.188;11.566;2024-02-16T09:22:47;59.05;;;8.20;;
64110;SDS011;50401;48.188;11.566;2024-02-16T09:25:13;37.05;;;6.50;;
64110;SDS011;50401;48.188;11.566;2024-02-16T09:27:40;48.00;;;10.05;;
64110;SDS011;50401;48.188;11.566;2024-02-16T09:30:09;33.65;;;7.00;;
64110;SDS011;50401;48.188;11.566;2024-02-16T09:32:39;57.22;;;7.85;;
64110;SDS011;50401;48.188;11.566;2024-02-16T09:35:05;52.60;;;7.80;;
64110;SDS011;50401;48.188;11.566;2024-02-16T09:37:30;42.72;;;6.00;;
64110;SDS011;50401;48.188;11.566;2024-02-16T09:39:56;66.22;;;7.47;;
64110;SDS011;50401;48.188;11.566;2024-02-16T09:42:23;37.72;;;6.30;;
64110;SDS011;50401;48.188;11.566;2024-02-16T09:44:51;31.77;;;5.95;;
64110;SDS011;50401;48.188;11.566;2024-02-16T09:47:19;30.85;;;4.55;;
64110;SDS011;50401;48.188;11.566;2024-02-16T09:49:47;42.03;;;5.53;;
64110;SDS011;50401;48.188;11.566;2024-02-16T09:52:13;19.38;;;4.95;;
64110;SDS011;50401;48.188;11.566;2024-02-16T09:54:38;36.95;;;5.45;;
64110;SDS011;50401;48.188;11.566;2024-02-16T09:57:04;30.25;;;5.80;;
64110;SDS011;50401;48.188;11.566;2024-02-16T09:59:30;35.22;;;5.32;;
64110;SDS011;50401;48.188;11.566;2024-02-16T10:02:00;13.98;;;4.60;;
64110;SDS011;50401;48.188;11.566;2024-02-16T10:04:27;22.35;;;4.78;;
64110;SDS011;50401;48.188;11.566;2024-02-16T10:06:53;24.75;;;4.53;;
64110;SDS011;50401;48.188;11.566;2024-02-16T10:09:22;47.45;;;5.15;;
64110;SDS011;50401;48.188;11.566;2024-02-16T10:11:51;19.92;;;5.20;;
64110;SDS011;50401;48.188;11.566;2024-02-16T10:14:16;19.85;;;4.65;;
64110;SDS011;50401;48.188;11.566;2024-02-16T10:16:44;17.52;;;4.95;;
64110;SDS011;50401;48.188;11.566;2024-02-16T10:19:10;19.25;;;4.30;;
64110;SDS011;50401;48.188;11.566;2024-02-16T10:21:35;24.25;;;4.47;;
64110;SDS011;50401;48.188;11.566;2024-02-16T10:24:07;44.47;;;7.07;;
64110;SDS011;50401;48.188;11.566;2024-02-16T10:26:39;36.33;;;6.90;;
64110;SDS011;50401;48.188;11.566;2024-02-16T10:29:05;101.72;;;8.02;;
64110;SDS011;50401;48.188;11.566;2024-02-16T10:31:33;55.50;;;6.10;;
64110;SDS011;50401;48.188;11.566;2024-02-16T10:34:00;28.05;;;5.40;;
64110;SDS011;50401;48.188;11.566;2024-02-16T10:36:31;63.65;;;7.00;;
64110;SDS011;50401;48.188;11.566;2024-02-16T10:39:00;33.08;;;5.03;;
64110;SDS011;50401;48.188;11.566;2024-02-16T10:41:29;43.03;;;7.07;;
64110;SDS011;50401;48.188;11.566;2024-02-16T10:43:59;49.00;;;5.38;;
64110;SDS011;50401;48.188;11.566;2024-02-16T10:46:26;34.30;;;4.97;;
64110;SDS011;50401;48.188;11.566;2024-02-16T10:48:52;18.42;;;4.30;;
64110;SDS011;50401;48.188;11.566;2024-02-16T10:51:20;25.27;;;4.00;;
64110;SDS011;50401;48.188;11.566;2024-02-16T10:53:49;17.67;;;3.30;;
64110;SDS011;50401;48.188;11.566;2024-02-16T10:56:17;27.60;;;3.60;;
64110;SDS011;50401;48.188;11.566;2024-02-16T10:59:05;21.67;;;3.75;;
64110;SDS011;50401;48.188;11.566;2024-02-16T11:01:43;19.35;;;3.17;;
64110;SDS011;50401;48.188;11.566;2024-02-16T11:04:13;27.13;;;4.03;;
64110;SDS011;50401;48.188;11.566;2024-02-16T11:06:54;26.92;;;5.35;;
64110;SDS011;50401;48.188;11.566;2024-02-16T11:09:34;15.18;;;3.70;;
64110;SDS011;50401;48.188;11.566;2024-02-16T11:12:04;22.83;;;5.10;;
64110;SDS011;50401;48.188;11.566;2024-02-16T11:14:34;16.05;;;4.13;;
64110;SDS011;50401;48.188;11.566;2024-02-16T11:17:14;15.85;;;4.38;;
64110;SDS011;50401;48.188;11.566;2024-02-16T11:19:45;17.90;;;4.35;;
64110;SDS011;50401;48.188;11.566;2024-02-16T11:22:14;14.75;;;3.88;;
64110;SDS011;50401;48.188;11.566;2024-02-16T11:24:44;10.30;;;3.75;;
64110;SDS011;50401;48.188;11.566;2024-02-16T11:27:11;17.58;;;4.03;;
64110;SDS011;50401;48.188;11.566;2024-02-16T11:29:37;16.13;;;3.38;;
64110;SDS011;50401;48.188;11.566;2024-02-16T11:32:04;22.20;;;4.53;;
64110;SDS011;50401;48.188;11.566;2024-02-16T11:34:31;20.92;;;3.88;;
64110;SDS011;50401;48.188;11.566;2024-02-16T11:36:57;20.88;;;3.90;;
64110;SDS011;50401;48.188;11.566;2024-02-16T11:39:24;26.80;;;3.70;;
64110;SDS011;50401;48.188;11.566;2024-02-16T11:44:35;15.40;;;4.50;;
64110;SDS011;50401;48.188;11.566;2024-02-16T11:47:01;23.38;;;4.13;;
64110;SDS011;50401;48.188;11.566;2024-02-16T11:49:28;13.60;;;3.80;;
64110;SDS011;50401;48.188;11.566;2024-02-16T11:51:54;18.92;;;4.50;;
64110;SDS011;50401;48.188;11.566;2024-02-16T11:54:20;16.92;;;4.65;;
64110;SDS011;50401;48.188;11.566;2024-02-16T11:56:46;37.10;;;3.80;;
64110;SDS011;50401;48.188;11.566;2024-02-16T11:59:16;22.85;;;4.65;;
64110;SDS011;50401;48.188;11.566;2024-02-16T12:01:58;16.95;;;3.95;;
64110;SDS011;50401;48.188;11.566;2024-02-16T12:04:24;18.80;;;4.18;;
64110;SDS011;50401;48.188;11.566;2024-02-16T12:06:51;16.63;;;5.32;;
64110;SDS011;50401;48.188;11.566;2024-02-16T12:09:26;17.45;;;3.67;;
64110;SDS011;50401;48.188;11.566;2024-02-16T12:11:52;30.83;;;4.47;;
64110;SDS011;50401;48.188;11.566;2024-02-16T12:14:19;23.38;;;4.05;;
64110;SDS011;50401;48.188;11.566;2024-02-16T12:16:50;28.05;;;4.38;;
64110;SDS011;50401;48.188;11.566;2024-02-16T12:19:20;26.48;;;4.47;;
64110;SDS011;50401;48.188;11.566;2024-02-16T12:21:54;16.05;;;4.53;;
64110;SDS011;50401;48.188;11.566;2024-02-16T12:24:22;20.95;;;5.10;;
64110;SDS011;50401;48.188;11.566;2024-02-16T12:26:48;25.38;;;5.43;;
64110;SDS011;50401;48.188;11.566;2024-02-16T12:29:13;12.13;;;3.70;;
64110;SDS011;50401;48.188;11.566;2024-02-16T12:31:42;10.77;;;3.80;;
64110;SDS011;50401;48.188;11.566;2024-02-16T12:34:09;21.80;;;3.10;;
64110;SDS011;50401;48.188;11.566;2024-02-16T12:36:35;26.83;;;4.30;;
64110;SDS011;50401;48.188;11.566;2024-02-16T12:39:02;31.48;;;4.05;;
64110;SDS011;50401;48.188;11.566;2024-02-16T12:41:29;12.77;;;3.95;;
64110;SDS011;50401;48.188;11.566;2024-02-16T12:43:55;13.90;;;3.47;;
64110;SDS011;50401;48.188;11.566;2024-02-16T12:46:20;15.50;;;4.25;;
64110;SDS011;50401;48.188;11.566;2024-02-16T12:48:46;26.30;;;4.00;;
64110;SDS011;50401;48.188;11.566;2024-02-16T12:51:11;10.45;;;4.07;;
64110;SDS011;50401;48.188;11.566;2024-02-16T12:53:37;14.77;;;4.30;;
64110;SDS011;50401;48.188;11.566;2024-02-16T12:56:08;15.63;;;4.35;;
64110;SDS011;50401;48.188;11.566;2024-02-16T13:01:01;14.43;;;3.88;;
64110;SDS011;50401;48.188;11.566;2024-02-16T13:03:27;10.43;;;3.65;;
64110;SDS011;50401;48.188;11.566;2024-02-16T13:05:53;25.83;;;4.07;;
64110;SDS011;50401;48.188;11.566;2024-02-16T13:08:18;22.80;;;4.20;;
64110;SDS011;50401;48.188;11.566;2024-02-16T13:10:43;27.25;;;3.97;;
64110;SDS011;50401;48.188;11.566;2024-02-16T13:13:09;29.63;;;4.43;;
64110;SDS011;50401;48.188;11.566;2024-02-16T13:15:34;16.98;;;3.95;;
64110;SDS011;50401;48.188;11.566;2024-02-16T13:17:59;11.48;;;4.18;;
64110;SDS011;50401;48.188;11.566;2024-02-16T13:20:25;11.23;;;3.83;;
64110;SDS011;50401;48.188;11.566;2024-02-16T13:22:50;15.82;;;3.28;;
64110;SDS011;50401;48.188;11.566;2024-02-16T13:25:16;17.60;;;4.18;;
64110;SDS011;50401;48.188;11.566;2024-02-16T13:27:41;9.32;;;3.75;;
64110;SDS011;50401;48.188;11.566;2024-02-16T13:30:07;9.25;;;3.90;;
64110;SDS011;50401;48.188;11.566;2024-02-16T13:32:33;21.38;;;4.80;;
64110;SDS011;50401;48.188;11.566;2024-02-16T13:37:28;21.73;;;4.90;;
64110;SDS011;50401;48.188;11.566;2024-02-16T13:39:53;17.73;;;4.50;;
64110;SDS011;50401;48.188;11.566;2024-02-16T13:42:19;16.17;;;4.45;;
64110;SDS011;50401;48.188;11.566;2024-02-16T13:44:44;28.92;;;4.55;;
64110;SDS011;50401;48.188;11.566;2024-02-16T13:47:10;13.93;;;4.65;;
64110;SDS011;50401;48.188;11.566;2024-02-16T13:49:35;39.95;;;6.30;;
64110;SDS011;50401;48.188;11.566;2024-02-16T13:52:01;13.27;;;3.85;;
64110;SDS011;50401;48.188;11.566;2024-02-16T13:54:26;24.08;;;4.65;;
64110;SDS011;50401;48.188;11.566;2024-02-16T13:56:52;27.05;;;5.95;;
64110;SDS011;50401;48.188;11.566;2024-02-16T13:59:18;16.48;;;3.95;;
64110;SDS011;50401;48.188;11.566;2024-02-16T14:01:43;15.98;;;4.57;;
64110;SDS011;50401;48.188;11.566;2024-02-16T14:04:09;24.48;;;5.28;;
64110;SDS011;50401;48.188;11.566;2024-02-16T14:06:34;16.75;;;4.00;;
64110;SDS011;50401;48.188;11.566;2024-02-16T14:09:00;25.90;;;3.55;;
64110;SDS011;50401;48.188;11.566;2024-02-16T14:11:26;26.23;;;5.22;;
64110;SDS011;50401;48.188;11.566;2024-02-16T14:13:51;28.00;;;4.70;;
64110;SDS011;50401;48.188;11.566;2024-02-16T14:16:17;9.82;;;3.97;;
64110;SDS011;50401;48.188;11.566;2024-02-16T14:18:43;26.92;;;4.70;;
64110;SDS011;50401;48.188;11.566;2024-02-16T14:21:08;19.13;;;4.25;;
64110;SDS011;50401;48.188;11.566;2024-02-16T14:23:33;10.63;;;4.55;;
64110;SDS011;50401;48.188;11.566;2024-02-16T14:25:59;17.70;;;4.65;;
64110;SDS011;50401;48.188;11.566;2024-02-16T14:28:25;13.73;;;4.70;;